WLF1632 KBUF-KBWI
Flight info
| Callsign | WLF1632 |
|---|---|
| Flight time | 0h 51m |
| Altitude | 33000 |
| Route | VAIRS DDUBS IZZEE TRISH4 |
| Aircraft | B738/M-SDE2E3FGHIRWXY/LB1 |
Departure
| Time | 2026-05-05 01:04 |
|---|---|
| Airport | Buffalo Niagara International Airport (KBUF) |
Arrival
| Time | 2026-05-05 01:55 |
|---|---|
| Airport | Baltimore/Washington International Thurgood Marshall Airport (KBWI) |
| Time | Latitude | Longitude | Altitude | Speed | Heading |
|---|---|---|---|---|---|
| 2026-05-05 00:35 | 42.93712 | -78.72960 | 714 ft | 0 kts | 179° |
| 2026-05-05 00:54 | 42.93719 | -78.72960 | 699 ft | 4 kts | 179° |
| 2026-05-05 00:54 | 42.93744 | -78.72960 | 713 ft | 4 kts | 177° |
| 2026-05-05 00:54 | 42.93762 | -78.72968 | 713 ft | 4 kts | 105° |
| 2026-05-05 00:55 | 42.93760 | -78.73002 | 715 ft | 4 kts | 65° |
| 2026-05-05 00:55 | 42.93749 | -78.73026 | 715 ft | 0 kts | 44° |
| 2026-05-05 00:59 | 42.93755 | -78.73018 | 712 ft | 4 kts | 44° |
| 2026-05-05 00:59 | 42.93802 | -78.72972 | 712 ft | 11 kts | 18° |
| 2026-05-05 00:59 | 42.93874 | -78.72975 | 715 ft | 10 kts | 19° |
| 2026-05-05 00:59 | 42.93925 | -78.72907 | 713 ft | 11 kts | 45° |
| 2026-05-05 01:00 | 42.93983 | -78.72831 | 711 ft | 12 kts | 43° |
| 2026-05-05 01:00 | 42.94043 | -78.72751 | 714 ft | 12 kts | 43° |
| 2026-05-05 01:00 | 42.94101 | -78.72676 | 716 ft | 12 kts | 43° |
| 2026-05-05 01:00 | 42.94158 | -78.72601 | 714 ft | 11 kts | 43° |
| 2026-05-05 01:01 | 42.94213 | -78.72528 | 716 ft | 11 kts | 44° |
| 2026-05-05 01:01 | 42.94268 | -78.72457 | 719 ft | 11 kts | 44° |
| 2026-05-05 01:01 | 42.94335 | -78.72370 | 720 ft | 15 kts | 43° |
| 2026-05-05 01:01 | 42.94421 | -78.72256 | 719 ft | 19 kts | 43° |
| 2026-05-05 01:02 | 42.94523 | -78.72122 | 719 ft | 23 kts | 43° |
| 2026-05-05 01:02 | 42.94640 | -78.71968 | 717 ft | 23 kts | 43° |
| 2026-05-05 01:02 | 42.94747 | -78.71833 | 715 ft | 11 kts | 44° |
| 2026-05-05 01:02 | 42.94814 | -78.71827 | 721 ft | 11 kts | 316° |
| 2026-05-05 01:03 | 42.94850 | -78.71904 | 719 ft | 8 kts | 254° |
| 2026-05-05 01:03 | 42.94801 | -78.71968 | 717 ft | 11 kts | 222° |
| 2026-05-05 01:03 | 42.94662 | -78.72144 | 717 ft | 60 kts | 225° |
| 2026-05-05 01:03 | 42.94185 | -78.72772 | 715 ft | 128 kts | 224° |
| 2026-05-05 01:04 | 42.93431 | -78.73754 | 961 ft | 159 kts | 225° |
| 2026-05-05 01:04 | 42.92036 | -78.75742 | 2956 ft | 138 kts | 224° |
| 2026-05-05 01:04 | 42.91283 | -78.76758 | 3368 ft | 169 kts | 224° |
| 2026-05-05 01:05 | 42.90381 | -78.77972 | 3612 ft | 195 kts | 224° |
| 2026-05-05 01:05 | 42.89359 | -78.79323 | 3978 ft | 210 kts | 220° |
| 2026-05-05 01:05 | 42.87983 | -78.79996 | 4642 ft | 222 kts | 184° |
| 2026-05-05 01:05 | 42.86421 | -78.79656 | 4956 ft | 236 kts | 175° |
| 2026-05-05 01:06 | 42.84726 | -78.79186 | 5196 ft | 257 kts | 175° |
| 2026-05-05 01:06 | 42.82971 | -78.78699 | 6151 ft | 257 kts | 175° |
| 2026-05-05 01:06 | 42.81200 | -78.78222 | 6712 ft | 261 kts | 175° |
| 2026-05-05 01:06 | 42.79406 | -78.77757 | 6992 ft | 265 kts | 176° |
| 2026-05-05 01:07 | 42.77583 | -78.77299 | 7008 ft | 266 kts | 176° |
| 2026-05-05 01:07 | 42.75764 | -78.76891 | 7095 ft | 267 kts | 177° |
| 2026-05-05 01:07 | 42.73943 | -78.76455 | 7693 ft | 273 kts | 177° |
| 2026-05-05 01:07 | 42.72063 | -78.76000 | 8581 ft | 276 kts | 177° |
| 2026-05-05 01:08 | 42.70153 | -78.75543 | 9408 ft | 281 kts | 178° |
| 2026-05-05 01:08 | 42.68211 | -78.75084 | 9852 ft | 285 kts | 178° |
| 2026-05-05 01:08 | 42.66237 | -78.74620 | 10018 ft | 291 kts | 178° |
| 2026-05-05 01:08 | 42.64231 | -78.74153 | 10091 ft | 293 kts | 178° |
| 2026-05-05 01:09 | 42.62179 | -78.73682 | 10387 ft | 312 kts | 178° |
| 2026-05-05 01:09 | 42.59952 | -78.73180 | 10610 ft | 335 kts | 177° |
| 2026-05-05 01:09 | 42.57613 | -78.72643 | 11178 ft | 345 kts | 176° |
| 2026-05-05 01:09 | 42.55225 | -78.72090 | 11909 ft | 350 kts | 177° |
| 2026-05-05 01:10 | 42.52808 | -78.71528 | 12712 ft | 354 kts | 177° |
| 2026-05-05 01:10 | 42.50358 | -78.70962 | 13413 ft | 361 kts | 177° |
| 2026-05-05 01:10 | 42.47867 | -78.70389 | 14079 ft | 365 kts | 177° |
| 2026-05-05 01:10 | 42.45388 | -78.69818 | 14826 ft | 366 kts | 176° |
| 2026-05-05 01:11 | 42.42874 | -78.69240 | 15616 ft | 368 kts | 176° |
| 2026-05-05 01:11 | 42.40340 | -78.68659 | 16301 ft | 372 kts | 176° |
| 2026-05-05 01:11 | 42.37770 | -78.68072 | 16951 ft | 376 kts | 176° |
| 2026-05-05 01:11 | 42.35171 | -78.67480 | 17616 ft | 380 kts | 176° |
| 2026-05-05 01:12 | 42.32556 | -78.66884 | 18286 ft | 383 kts | 176° |
| 2026-05-05 01:12 | 42.29919 | -78.66283 | 18870 ft | 387 kts | 175° |
| 2026-05-05 01:12 | 42.27251 | -78.65675 | 19431 ft | 391 kts | 175° |
| 2026-05-05 01:12 | 42.24555 | -78.65062 | 19987 ft | 395 kts | 176° |
| 2026-05-05 01:13 | 42.21838 | -78.64445 | 20547 ft | 398 kts | 175° |
| 2026-05-05 01:13 | 42.19088 | -78.63822 | 21080 ft | 402 kts | 175° |
| 2026-05-05 01:13 | 42.16340 | -78.62954 | 21589 ft | 412 kts | 165° |
| 2026-05-05 01:13 | 42.13723 | -78.61259 | 22136 ft | 423 kts | 152° |
| 2026-05-05 01:14 | 42.11384 | -78.58786 | 22655 ft | 433 kts | 140° |
| 2026-05-05 01:14 | 42.09252 | -78.55959 | 23168 ft | 437 kts | 138° |
| 2026-05-05 01:14 | 42.07108 | -78.53034 | 23634 ft | 440 kts | 138° |
| 2026-05-05 01:14 | 42.04951 | -78.50085 | 24082 ft | 443 kts | 138° |
| 2026-05-05 01:15 | 42.02776 | -78.47142 | 24521 ft | 445 kts | 138° |
| 2026-05-05 01:15 | 42.00580 | -78.44193 | 24964 ft | 447 kts | 138° |
| 2026-05-05 01:15 | 41.98360 | -78.41224 | 25376 ft | 450 kts | 138° |
| 2026-05-05 01:15 | 41.96135 | -78.38262 | 25799 ft | 452 kts | 138° |
| 2026-05-05 01:16 | 41.93887 | -78.35281 | 26212 ft | 455 kts | 138° |
| 2026-05-05 01:16 | 41.91624 | -78.32288 | 26610 ft | 457 kts | 138° |
| 2026-05-05 01:16 | 41.89346 | -78.29281 | 26997 ft | 460 kts | 138° |
| 2026-05-05 01:16 | 41.87087 | -78.26302 | 27357 ft | 462 kts | 138° |
| 2026-05-05 01:17 | 41.84787 | -78.23271 | 27750 ft | 465 kts | 138° |
| 2026-05-05 01:17 | 41.82476 | -78.20230 | 28115 ft | 467 kts | 138° |
| 2026-05-05 01:17 | 41.80148 | -78.17170 | 28461 ft | 470 kts | 139° |
| 2026-05-05 01:17 | 41.77803 | -78.14100 | 28799 ft | 472 kts | 138° |
| 2026-05-05 01:18 | 41.75458 | -78.11021 | 29185 ft | 473 kts | 138° |
| 2026-05-05 01:18 | 41.73104 | -78.07929 | 29524 ft | 475 kts | 138° |
| 2026-05-05 01:18 | 41.70734 | -78.04821 | 29901 ft | 476 kts | 138° |
| 2026-05-05 01:18 | 41.68370 | -78.01725 | 30307 ft | 475 kts | 138° |
| 2026-05-05 01:19 | 41.66004 | -77.98632 | 30681 ft | 474 kts | 138° |
| 2026-05-05 01:19 | 41.63642 | -77.95547 | 31021 ft | 475 kts | 137° |
| 2026-05-05 01:19 | 41.61279 | -77.92462 | 31347 ft | 475 kts | 138° |
| 2026-05-05 01:19 | 41.58910 | -77.89380 | 31678 ft | 475 kts | 137° |
| 2026-05-05 01:20 | 41.56537 | -77.86294 | 32013 ft | 476 kts | 137° |
| 2026-05-05 01:20 | 41.54170 | -77.83217 | 32346 ft | 475 kts | 137° |
| 2026-05-05 01:20 | 41.51833 | -77.80183 | 32724 ft | 474 kts | 138° |
| 2026-05-05 01:20 | 41.49333 | -77.77319 | 32793 ft | 476 kts | 147° |
| 2026-05-05 01:21 | 41.43469 | -77.73366 | 32817 ft | 470 kts | 166° |
| 2026-05-05 01:21 | 41.37264 | -77.70831 | 32827 ft | 463 kts | 167° |
| 2026-05-05 01:22 | 41.31101 | -77.68336 | 32818 ft | 464 kts | 166° |
| 2026-05-05 01:22 | 41.24932 | -77.65775 | 32813 ft | 464 kts | 166° |
| 2026-05-05 01:23 | 41.18797 | -77.63192 | 32577 ft | 467 kts | 166° |
| 2026-05-05 01:23 | 41.15710 | -77.61898 | 32208 ft | 461 kts | 166° |
| 2026-05-05 01:23 | 41.12665 | -77.60624 | 31772 ft | 456 kts | 166° |
| 2026-05-05 01:24 | 41.09657 | -77.59368 | 31322 ft | 451 kts | 165° |
| 2026-05-05 01:24 | 41.06672 | -77.58160 | 30897 ft | 446 kts | 165° |
| 2026-05-05 01:24 | 41.03726 | -77.56929 | 30461 ft | 442 kts | 165° |
| 2026-05-05 01:24 | 41.00808 | -77.55690 | 30034 ft | 438 kts | 164° |
| 2026-05-05 01:25 | 40.97913 | -77.54472 | 29551 ft | 435 kts | 165° |
| 2026-05-05 01:25 | 40.95048 | -77.53277 | 29083 ft | 430 kts | 164° |
| 2026-05-05 01:25 | 40.92290 | -77.51789 | 28627 ft | 427 kts | 154° |
| 2026-05-05 01:25 | 40.89706 | -77.49892 | 28211 ft | 423 kts | 152° |
| 2026-05-05 01:26 | 40.87187 | -77.47917 | 27748 ft | 419 kts | 151° |
| 2026-05-05 01:26 | 40.84696 | -77.45942 | 27326 ft | 415 kts | 151° |
| 2026-05-05 01:26 | 40.82223 | -77.44002 | 26891 ft | 412 kts | 152° |
| 2026-05-05 01:26 | 40.79761 | -77.42100 | 26454 ft | 408 kts | 152° |
| 2026-05-05 01:27 | 40.77309 | -77.40230 | 26028 ft | 405 kts | 152° |
| 2026-05-05 01:27 | 40.74892 | -77.38402 | 25606 ft | 402 kts | 153° |
| 2026-05-05 01:27 | 40.72472 | -77.36582 | 25192 ft | 399 kts | 153° |
| 2026-05-05 01:27 | 40.70065 | -77.34777 | 24784 ft | 397 kts | 153° |
| 2026-05-05 01:28 | 40.67672 | -77.32985 | 24369 ft | 395 kts | 153° |
| 2026-05-05 01:28 | 40.65282 | -77.31200 | 23946 ft | 393 kts | 153° |
| 2026-05-05 01:28 | 40.62910 | -77.29430 | 23539 ft | 391 kts | 153° |
| 2026-05-05 01:28 | 40.60569 | -77.27677 | 23304 ft | 384 kts | 153° |
| 2026-05-05 01:29 | 40.58239 | -77.25935 | 23033 ft | 386 kts | 153° |
| 2026-05-05 01:29 | 40.55879 | -77.24175 | 22771 ft | 391 kts | 153° |
| 2026-05-05 01:29 | 40.53502 | -77.22403 | 22506 ft | 393 kts | 153° |
| 2026-05-05 01:29 | 40.51160 | -77.20657 | 22232 ft | 389 kts | 153° |
| 2026-05-05 01:30 | 40.48812 | -77.18908 | 21968 ft | 386 kts | 153° |
| 2026-05-05 01:30 | 40.46476 | -77.17169 | 21697 ft | 384 kts | 153° |
| 2026-05-05 01:30 | 40.44163 | -77.15449 | 21435 ft | 381 kts | 153° |
| 2026-05-05 01:30 | 40.41857 | -77.13737 | 21182 ft | 379 kts | 153° |
| 2026-05-05 01:31 | 40.39563 | -77.12034 | 20913 ft | 377 kts | 153° |
| 2026-05-05 01:31 | 40.37286 | -77.10345 | 20663 ft | 376 kts | 153° |
| 2026-05-05 01:31 | 40.35010 | -77.08658 | 20418 ft | 374 kts | 153° |
| 2026-05-05 01:31 | 40.32748 | -77.06983 | 20170 ft | 373 kts | 153° |
| 2026-05-05 01:32 | 40.30490 | -77.05313 | 19925 ft | 372 kts | 153° |
| 2026-05-05 01:32 | 40.28286 | -77.03548 | 19666 ft | 373 kts | 144° |
| 2026-05-05 01:32 | 40.26365 | -77.01254 | 19446 ft | 374 kts | 138° |
| 2026-05-05 01:32 | 40.24529 | -76.98827 | 19201 ft | 374 kts | 137° |
| 2026-05-05 01:33 | 40.22722 | -76.96400 | 18909 ft | 371 kts | 137° |
| 2026-05-05 01:33 | 40.20945 | -76.94026 | 18551 ft | 368 kts | 137° |
| 2026-05-05 01:33 | 40.19154 | -76.91661 | 18183 ft | 365 kts | 138° |
| 2026-05-05 01:33 | 40.17360 | -76.89317 | 17754 ft | 363 kts | 138° |
| 2026-05-05 01:34 | 40.15570 | -76.86994 | 17328 ft | 361 kts | 138° |
| 2026-05-05 01:34 | 40.13793 | -76.84698 | 16961 ft | 357 kts | 138° |
| 2026-05-05 01:34 | 40.12033 | -76.82429 | 16575 ft | 354 kts | 139° |
| 2026-05-05 01:34 | 40.10292 | -76.80189 | 16275 ft | 350 kts | 139° |
| 2026-05-05 01:35 | 40.08561 | -76.77965 | 15903 ft | 348 kts | 139° |
| 2026-05-05 01:35 | 40.06837 | -76.75752 | 15548 ft | 347 kts | 139° |
| 2026-05-05 01:35 | 40.05118 | -76.73546 | 15188 ft | 346 kts | 139° |
| 2026-05-05 01:35 | 40.03403 | -76.71348 | 14814 ft | 345 kts | 139° |
| 2026-05-05 01:36 | 40.01693 | -76.69157 | 14442 ft | 344 kts | 139° |
| 2026-05-05 01:36 | 40.00035 | -76.67034 | 14090 ft | 344 kts | 139° |
| 2026-05-05 01:36 | 39.98319 | -76.64839 | 13703 ft | 345 kts | 139° |
| 2026-05-05 01:36 | 39.96608 | -76.62650 | 13308 ft | 345 kts | 139° |
| 2026-05-05 01:37 | 39.94894 | -76.60459 | 12913 ft | 344 kts | 139° |
| 2026-05-05 01:37 | 39.93190 | -76.58283 | 12537 ft | 343 kts | 139° |
| 2026-05-05 01:37 | 39.91512 | -76.56143 | 12176 ft | 341 kts | 140° |
| 2026-05-05 01:37 | 39.89640 | -76.54339 | 11974 ft | 329 kts | 161° |
| 2026-05-05 01:38 | 39.87506 | -76.53323 | 11976 ft | 327 kts | 167° |
| 2026-05-05 01:38 | 39.85366 | -76.52421 | 11964 ft | 319 kts | 168° |
| 2026-05-05 01:38 | 39.83295 | -76.51554 | 11955 ft | 306 kts | 168° |
| 2026-05-05 01:38 | 39.81311 | -76.50716 | 11952 ft | 293 kts | 168° |
| 2026-05-05 01:39 | 39.79417 | -76.49910 | 11958 ft | 278 kts | 168° |
| 2026-05-05 01:39 | 39.77618 | -76.49139 | 11958 ft | 266 kts | 168° |
| 2026-05-05 01:39 | 39.75898 | -76.48399 | 11968 ft | 257 kts | 168° |
| 2026-05-05 01:39 | 39.74212 | -76.47676 | 11973 ft | 255 kts | 168° |
| 2026-05-05 01:40 | 39.73086 | -76.47194 | 11987 ft | 259 kts | 168° |
| 2026-05-05 01:40 | 39.71350 | -76.46451 | 12009 ft | 265 kts | 168° |
| 2026-05-05 01:40 | 39.69593 | -76.45694 | 12000 ft | 266 kts | 168° |
| 2026-05-05 01:40 | 39.67843 | -76.44937 | 11985 ft | 264 kts | 168° |
| 2026-05-05 01:41 | 39.66102 | -76.44183 | 11982 ft | 263 kts | 168° |
| 2026-05-05 01:41 | 39.64377 | -76.43436 | 11985 ft | 261 kts | 168° |
| 2026-05-05 01:41 | 39.62673 | -76.42699 | 11952 ft | 260 kts | 168° |
| 2026-05-05 01:41 | 39.60944 | -76.41955 | 11595 ft | 267 kts | 168° |
| 2026-05-05 01:42 | 39.59119 | -76.41173 | 10809 ft | 285 kts | 167° |
| 2026-05-05 01:42 | 39.57209 | -76.40350 | 10191 ft | 292 kts | 167° |
| 2026-05-05 01:42 | 39.55284 | -76.39520 | 9743 ft | 290 kts | 167° |
| 2026-05-05 01:42 | 39.53372 | -76.38789 | 9322 ft | 281 kts | 178° |
| 2026-05-05 01:43 | 39.51511 | -76.39007 | 8933 ft | 261 kts | 206° |
| 2026-05-05 01:43 | 39.50013 | -76.40151 | 8483 ft | 251 kts | 225° |
| 2026-05-05 01:43 | 39.48896 | -76.41855 | 8142 ft | 247 kts | 243° |
| 2026-05-05 01:43 | 39.48175 | -76.43842 | 7931 ft | 242 kts | 248° |
| 2026-05-05 01:44 | 39.47521 | -76.45824 | 7539 ft | 239 kts | 248° |
| 2026-05-05 01:44 | 39.46884 | -76.47777 | 7343 ft | 234 kts | 247° |
| 2026-05-05 01:44 | 39.46253 | -76.49706 | 7180 ft | 233 kts | 247° |
| 2026-05-05 01:44 | 39.45621 | -76.51631 | 7047 ft | 241 kts | 248° |
| 2026-05-05 01:45 | 39.44955 | -76.53651 | 6887 ft | 246 kts | 247° |
| 2026-05-05 01:45 | 39.44282 | -76.55690 | 6722 ft | 246 kts | 246° |
| 2026-05-05 01:45 | 39.43614 | -76.57707 | 6552 ft | 241 kts | 246° |
| 2026-05-05 01:45 | 39.42960 | -76.59677 | 6394 ft | 236 kts | 246° |
| 2026-05-05 01:46 | 39.42312 | -76.61626 | 6234 ft | 236 kts | 246° |
| 2026-05-05 01:46 | 39.41665 | -76.63574 | 6083 ft | 236 kts | 246° |
| 2026-05-05 01:46 | 39.41013 | -76.65532 | 5932 ft | 236 kts | 246° |
| 2026-05-05 01:46 | 39.40362 | -76.67485 | 5778 ft | 237 kts | 246° |
| 2026-05-05 01:47 | 39.39710 | -76.69439 | 5609 ft | 236 kts | 245° |
| 2026-05-05 01:47 | 39.39066 | -76.71366 | 5456 ft | 236 kts | 245° |
| 2026-05-05 01:47 | 39.38368 | -76.73287 | 5309 ft | 235 kts | 240° |
| 2026-05-05 01:47 | 39.37581 | -76.75098 | 5148 ft | 226 kts | 239° |
| 2026-05-05 01:48 | 39.36886 | -76.76672 | 4988 ft | 214 kts | 239° |
| 2026-05-05 01:48 | 39.36173 | -76.78297 | 4849 ft | 201 kts | 239° |
| 2026-05-05 01:48 | 39.35492 | -76.79857 | 4751 ft | 199 kts | 239° |
| 2026-05-05 01:48 | 39.34814 | -76.81413 | 4620 ft | 198 kts | 238° |
| 2026-05-05 01:49 | 39.34052 | -76.82880 | 4476 ft | 196 kts | 221° |
| 2026-05-05 01:49 | 39.32898 | -76.83799 | 4367 ft | 196 kts | 205° |
| 2026-05-05 01:49 | 39.31608 | -76.84395 | 4254 ft | 198 kts | 201° |
| 2026-05-05 01:49 | 39.30292 | -76.84953 | 4130 ft | 201 kts | 201° |
| 2026-05-05 01:50 | 39.28990 | -76.85547 | 3970 ft | 200 kts | 204° |
| 2026-05-05 01:50 | 39.27708 | -76.86199 | 3809 ft | 195 kts | 205° |
| 2026-05-05 01:50 | 39.26453 | -76.86838 | 3717 ft | 193 kts | 205° |
| 2026-05-05 01:50 | 39.25194 | -76.87477 | 3567 ft | 195 kts | 205° |
| 2026-05-05 01:51 | 39.23922 | -76.88121 | 3439 ft | 197 kts | 205° |
| 2026-05-05 01:51 | 39.22643 | -76.88766 | 3306 ft | 198 kts | 204° |
| 2026-05-05 01:51 | 39.21283 | -76.89080 | 3150 ft | 207 kts | 178° |
| 2026-05-05 01:51 | 39.19917 | -76.88446 | 3065 ft | 212 kts | 154° |
| 2026-05-05 01:52 | 39.18902 | -76.87113 | 3030 ft | 207 kts | 126° |
| 2026-05-05 01:52 | 39.18601 | -76.85328 | 3047 ft | 205 kts | 98° |
| 2026-05-05 01:52 | 39.18386 | -76.83529 | 3042 ft | 206 kts | 111° |
| 2026-05-05 01:52 | 39.18174 | -76.81718 | 2991 ft | 202 kts | 100° |
| 2026-05-05 01:53 | 39.18103 | -76.79943 | 2783 ft | 195 kts | 101° |
| 2026-05-05 01:53 | 39.17998 | -76.78198 | 2346 ft | 194 kts | 102° |
| 2026-05-05 01:53 | 39.17962 | -76.76604 | 2244 ft | 171 kts | 98° |
| 2026-05-05 01:53 | 39.17926 | -76.75039 | 1685 ft | 175 kts | 103° |
| 2026-05-05 01:54 | 39.17736 | -76.73536 | 1165 ft | 170 kts | 107° |
| 2026-05-05 01:54 | 39.17622 | -76.72099 | 902 ft | 155 kts | 95° |
| 2026-05-05 01:54 | 39.17588 | -76.70785 | 661 ft | 139 kts | 100° |
| 2026-05-05 01:54 | 39.17495 | -76.69557 | 399 ft | 140 kts | 96° |
| 2026-05-05 01:55 | 39.17438 | -76.68265 | 168 ft | 146 kts | 94° |
| 2026-05-05 01:55 | 39.17364 | -76.67051 | 149 ft | 120 kts | 94° |
| 2026-05-05 01:55 | 39.17316 | -76.66165 | 146 ft | 78 kts | 94° |
| 2026-05-05 01:55 | 39.17298 | -76.65774 | 141 ft | 20 kts | 75° |
| 2026-05-05 01:56 | 39.17310 | -76.65726 | 141 ft | 8 kts | 92° |
| 2026-05-05 01:56 | 39.17300 | -76.65632 | 139 ft | 11 kts | 99° |
| 2026-05-05 01:56 | 39.17321 | -76.65544 | 140 ft | 11 kts | 32° |
| 2026-05-05 01:56 | 39.17394 | -76.65537 | 140 ft | 11 kts | 330° |
| 2026-05-05 01:57 | 39.17422 | -76.65625 | 141 ft | 11 kts | 278° |
| 2026-05-05 01:57 | 39.17428 | -76.65720 | 140 ft | 10 kts | 273° |
| 2026-05-05 01:57 | 39.17433 | -76.65811 | 142 ft | 10 kts | 276° |
| 2026-05-05 01:57 | 39.17438 | -76.65901 | 144 ft | 10 kts | 275° |
| 2026-05-05 01:58 | 39.17444 | -76.65987 | 146 ft | 10 kts | 274° |
| 2026-05-05 01:58 | 39.17448 | -76.66071 | 147 ft | 9 kts | 274° |
| 2026-05-05 01:58 | 39.17454 | -76.66155 | 148 ft | 9 kts | 275° |
| 2026-05-05 01:58 | 39.17462 | -76.66233 | 148 ft | 9 kts | 285° |
| 2026-05-05 01:59 | 39.17490 | -76.66302 | 148 ft | 9 kts | 302° |
| 2026-05-05 01:59 | 39.17521 | -76.66367 | 150 ft | 8 kts | 301° |
| 2026-05-05 01:59 | 39.17553 | -76.66429 | 152 ft | 8 kts | 303° |
| 2026-05-05 01:59 | 39.17572 | -76.66495 | 153 ft | 8 kts | 266° |
| 2026-05-05 02:00 | 39.17538 | -76.66549 | 153 ft | 8 kts | 221° |
| 2026-05-05 02:00 | 39.17520 | -76.66615 | 153 ft | 8 kts | 265° |
| 2026-05-05 02:00 | 39.17524 | -76.66677 | 153 ft | 1 kts | 298° |
| 2026-05-05 02:00 | 39.17532 | -76.66674 | 153 ft | 4 kts | 37° |
| 2026-05-05 02:01 | 39.17556 | -76.66627 | 162 ft | 7 kts | 41° |
| 2026-05-05 02:01 | 39.17599 | -76.66624 | 154 ft | 7 kts | 324° |
| 2026-05-05 02:01 | 39.17624 | -76.66657 | 155 ft | 2 kts | 309° |
| 2026-05-05 02:01 | 39.17632 | -76.66667 | 155 ft | 2 kts | 328° |
| 2026-05-05 02:02 | 39.17645 | -76.66670 | 155 ft | 2 kts | 346° |
| 2026-05-05 02:02 | 39.17660 | -76.66667 | 155 ft | 2 kts | 9° |
| 2026-05-05 02:02 | 39.17672 | -76.66665 | 155 ft | 0 kts | 9° |
| 2026-05-05 02:02 | 39.17673 | -76.66665 | 155 ft | 0 kts | 10° |
| 2026-05-05 02:03 | 39.17673 | -76.66664 | 155 ft | 0 kts | 10° |